createdAt,value
2023-03-17T00:01:29.669Z,47.99
2023-03-17T00:06:29.660Z,47.97
2023-03-17T00:11:29.672Z,47.83
2023-03-17T00:16:29.662Z,47.97
2023-03-17T00:21:29.674Z,48.17
2023-03-17T00:26:29.673Z,48.01
2023-03-17T00:31:29.675Z,47.96
2023-03-17T00:36:29.675Z,47.96
2023-03-17T00:41:29.666Z,48
2023-03-17T00:46:29.677Z,48.08
2023-03-17T00:51:29.667Z,48.05
2023-03-17T00:56:29.679Z,48.15
2023-03-17T01:01:29.680Z,48.11
2023-03-17T01:06:29.670Z,48.18
2023-03-17T01:11:29.681Z,48.12
2023-03-17T01:16:29.671Z,48.13
2023-03-17T01:21:29.682Z,48.22
2023-03-17T01:26:29.683Z,48.29
2023-03-17T01:31:29.685Z,48.39
2023-03-17T01:41:29.675Z,48.23
2023-03-17T01:46:29.686Z,48.22
2023-03-17T01:51:29.677Z,48.21
2023-03-17T01:56:29.694Z,48.24
2023-03-17T02:01:29.688Z,47.96
2023-03-17T02:06:29.690Z,47.79
2023-03-17T02:11:29.690Z,47.7
2023-03-17T02:16:29.679Z,47.69
2023-03-17T02:21:29.691Z,47.72
2023-03-17T02:26:29.682Z,47.72
2023-03-17T02:31:29.694Z,47.72
2023-03-17T02:36:29.694Z,47.74
2023-03-17T02:41:29.684Z,47.74
2023-03-17T02:46:29.695Z,47.7
2023-03-17T02:51:29.686Z,47.68
2023-03-17T02:56:29.697Z,47.7
2023-03-17T03:01:29.697Z,47.81
2023-03-17T03:06:29.698Z,47.64
2023-03-17T03:11:29.700Z,47.73
2023-03-17T03:16:29.689Z,47.86
2023-03-17T03:21:29.700Z,47.95
2023-03-17T03:26:29.691Z,48.01
2023-03-17T03:31:29.703Z,47.73
2023-03-17T03:36:29.703Z,47.79
2023-03-17T03:41:29.693Z,47.62
2023-03-17T03:46:29.704Z,47.6
2023-03-17T03:51:29.694Z,47.66
2023-03-17T03:56:29.705Z,47.73
2023-03-17T04:01:29.706Z,47.86
2023-03-17T04:06:29.708Z,47.7
2023-03-17T04:11:29.708Z,47.93
2023-03-17T04:16:29.698Z,47.91
2023-03-17T04:21:29.709Z,47.78
2023-03-17T04:26:29.699Z,47.89
2023-03-17T04:31:38.975Z,47.73
2023-03-17T04:36:29.712Z,47.8
2023-03-17T04:41:29.760Z,47.86
2023-03-17T04:46:29.712Z,47.91
2023-03-17T04:51:29.703Z,47.81
2023-03-17T05:01:29.705Z,47.78
2023-03-17T05:06:29.716Z,47.93
2023-03-17T05:11:29.716Z,48.06
2023-03-17T05:16:34.930Z,48.16
2023-03-17T05:21:29.719Z,47.95
2023-03-17T05:26:29.708Z,47.86
2023-03-17T05:31:29.719Z,47.98
2023-03-17T05:36:29.719Z,47.73
2023-03-17T05:41:29.721Z,48.06
2023-03-17T05:46:29.722Z,47.87
2023-03-17T05:51:29.711Z,47.8
2023-03-17T05:56:29.722Z,47.67
2023-03-17T06:01:29.713Z,47.72
2023-03-17T06:06:29.725Z,47.63
2023-03-17T06:11:29.725Z,47.6
2023-03-17T06:16:32.632Z,47.63
2023-03-17T06:21:29.726Z,47.63
2023-03-17T06:26:29.716Z,47.6
2023-03-17T06:31:29.727Z,47.23
2023-03-17T06:36:29.728Z,47.27
2023-03-17T06:41:29.728Z,47.28
2023-03-17T06:46:29.729Z,46.65
2023-03-17T06:51:29.719Z,45.82
2023-03-17T06:56:29.730Z,45.35
2023-03-17T07:01:29.721Z,44.85
2023-03-17T07:06:29.739Z,44.78
2023-03-17T07:11:29.734Z,44.64
2023-03-17T07:16:37.969Z,45.11
2023-03-17T07:21:29.735Z,45.52
2023-03-17T07:26:37.959Z,45.54
2023-03-17T07:31:29.736Z,45.45
2023-03-17T07:36:29.737Z,44.26
2023-03-17T07:41:29.738Z,38.05
2023-03-17T07:46:29.787Z,34.76
2023-03-17T07:51:29.730Z,35.4
2023-03-17T07:56:29.745Z,36.41
2023-03-17T08:01:29.733Z,39.27
2023-03-17T08:06:29.745Z,41.16
2023-03-17T08:11:29.746Z,41.72
2023-03-17T08:16:29.749Z,42.59
2023-03-17T08:21:29.750Z,42.95
2023-03-17T08:26:29.740Z,44
2023-03-17T08:31:29.752Z,45.18
2023-03-17T08:36:29.744Z,45.48
2023-03-17T08:41:29.755Z,44.11
2023-03-17T08:46:29.757Z,44.24
2023-03-17T08:51:29.748Z,44.04
2023-03-17T08:56:29.761Z,40.77
2023-03-17T09:01:29.752Z,37.17
2023-03-17T09:06:29.764Z,34.27
2023-03-17T09:11:29.766Z,34.4
2023-03-17T09:16:29.770Z,34.61
2023-03-17T09:21:29.771Z,36.57
2023-03-17T09:26:29.763Z,37.05
2023-03-17T09:31:29.776Z,36.24
2023-03-17T09:36:29.768Z,36.57
2023-03-17T09:41:29.780Z,35.07
2023-03-17T09:46:29.784Z,34.32
2023-03-17T09:51:29.775Z,32.67
2023-03-17T09:56:29.789Z,34.3
2023-03-17T10:01:29.781Z,33.7
2023-03-17T10:06:29.793Z,35.27
2023-03-17T10:11:29.797Z,35.3
2023-03-17T10:16:29.799Z,37
2023-03-17T10:21:29.826Z,36.17
2023-03-17T10:26:29.794Z,36.06
2023-03-17T10:31:29.810Z,35.95
2023-03-17T10:36:29.800Z,35.45
2023-03-17T10:41:29.814Z,34.18
2023-03-17T10:46:29.815Z,35.82
2023-03-17T10:51:29.827Z,36.51
2023-03-17T10:56:29.821Z,36.7
2023-03-17T11:01:29.814Z,37.27
2023-03-17T11:06:29.827Z,37.33
2023-03-17T11:11:29.819Z,37.35
2023-03-17T11:16:29.832Z,37.45
2023-03-17T11:21:29.836Z,36.49
2023-03-17T11:26:29.828Z,36.12
2023-03-17T11:31:29.842Z,36.7
2023-03-17T11:36:29.834Z,36.33
2023-03-17T11:41:29.847Z,34.14
2023-03-17T11:51:29.853Z,33.33
2023-03-17T11:56:29.857Z,33.92
2023-03-17T12:01:29.849Z,35.23
2023-03-17T12:06:29.862Z,38.11
2023-03-17T12:11:39.113Z,40.24
2023-03-17T12:16:29.868Z,41.54
2023-03-17T12:21:29.871Z,40.06
2023-03-17T12:26:29.863Z,40.77
2023-03-17T12:31:29.877Z,44.55
2023-03-17T12:36:29.870Z,43.31
2023-03-17T12:41:29.882Z,43.76
2023-03-17T12:46:29.885Z,43.9
2023-03-17T12:51:29.889Z,42.66
2023-03-17T12:56:29.892Z,45.12
2023-03-17T13:01:29.884Z,46.94
2023-03-17T13:06:29.897Z,49.99
2023-03-17T13:11:29.888Z,50.88
2023-03-17T13:16:29.911Z,51.44
2023-03-17T13:21:29.904Z,52.41
2023-03-17T13:26:29.908Z,51.96
2023-03-17T13:31:29.910Z,51.9
2023-03-17T13:36:29.902Z,51.72
2023-03-17T13:41:29.916Z,51.32
2023-03-17T13:46:29.907Z,49.93
2023-03-17T13:51:29.921Z,49.04
2023-03-17T13:56:29.923Z,47.54
2023-03-17T14:01:29.914Z,48.78
2023-03-17T14:06:29.928Z,50.12
2023-03-17T14:11:29.920Z,50.16
2023-03-17T14:16:29.932Z,49.61
2023-03-17T14:21:29.935Z,50.38
2023-03-17T14:26:29.938Z,50.41
2023-03-17T14:31:29.940Z,50.36
2023-03-17T14:36:29.931Z,49.37
2023-03-17T14:41:29.944Z,48.97
2023-03-17T14:46:29.937Z,48.9
2023-03-17T14:51:29.950Z,49.48
2023-03-17T14:56:29.951Z,50.08
2023-03-17T15:01:29.944Z,49.37
2023-03-17T15:06:29.957Z,49.24
2023-03-17T15:11:29.948Z,49.46
2023-03-17T15:16:29.961Z,50.14
2023-03-17T15:21:29.953Z,51.02
2023-03-17T15:26:29.966Z,51.22
2023-03-17T15:31:29.968Z,51.97
2023-03-17T15:36:29.960Z,52.09
2023-03-17T15:41:29.972Z,51.99
2023-03-17T15:46:29.964Z,52.25
2023-03-17T15:51:29.985Z,52.29
2023-03-17T15:56:29.978Z,52.08
2023-03-17T16:01:29.980Z,52.08
2023-03-17T16:06:29.983Z,52.37
2023-03-17T16:11:29.974Z,52.4
2023-03-17T16:16:29.987Z,52.31
2023-03-17T16:21:29.978Z,52.1
2023-03-17T16:26:29.991Z,52.07
2023-03-17T16:31:29.993Z,51.79
2023-03-17T16:36:29.984Z,51.94
2023-03-17T16:41:29.997Z,51.93
2023-03-17T16:46:29.988Z,51.99
2023-03-17T16:51:30.001Z,51.93
2023-03-17T16:56:30.002Z,52.07
2023-03-17T17:01:30.005Z,51.78
2023-03-17T17:06:30.006Z,51.96
2023-03-17T17:11:29.997Z,51.88
2023-03-17T17:16:30.010Z,51.76
2023-03-17T17:21:30.001Z,51.81
2023-03-17T17:26:30.013Z,52.01
2023-03-17T17:31:30.015Z,51.66
2023-03-17T17:36:30.016Z,51.65
2023-03-17T17:41:30.018Z,51.61
2023-03-17T17:46:30.009Z,51.78
2023-03-17T17:51:30.021Z,51.87
2023-03-17T17:56:30.013Z,51.84
2023-03-17T18:01:30.026Z,51.49
2023-03-17T18:06:30.027Z,51.93
2023-03-17T18:11:30.018Z,51.77
2023-03-17T18:16:30.029Z,51.67
2023-03-17T18:21:30.021Z,51.79
2023-03-17T18:26:30.033Z,51.84
2023-03-17T18:31:30.034Z,51.81
2023-03-17T18:36:30.037Z,51.86
2023-03-17T18:41:30.038Z,51.6
2023-03-17T18:46:30.029Z,51.38
2023-03-17T18:51:30.040Z,51.43
2023-03-17T18:56:30.032Z,51.56
2023-03-17T19:01:30.043Z,51.41
2023-03-17T19:06:30.046Z,51.41
2023-03-17T19:11:30.036Z,51.61
2023-03-17T19:16:30.048Z,51.63
2023-03-17T19:21:30.039Z,51.45
2023-03-17T19:26:30.051Z,51.33
2023-03-17T19:31:30.052Z,51.45
2023-03-17T19:36:30.054Z,51.46
2023-03-17T19:41:30.056Z,51.51
2023-03-17T19:46:30.045Z,51.54
2023-03-17T19:51:39.317Z,51.17
2023-03-17T19:56:30.049Z,51.29
2023-03-17T20:01:30.060Z,51.17
2023-03-17T20:06:30.061Z,51.55
2023-03-17T20:11:30.087Z,51.15
2023-03-17T20:16:30.065Z,50.77
2023-03-17T20:21:30.055Z,50.68
2023-03-17T20:26:30.066Z,50.92
2023-03-17T20:31:30.058Z,50.87
2023-03-17T20:36:30.069Z,51.01
2023-03-17T20:41:30.134Z,50.81
2023-03-17T20:46:30.061Z,50.78
2023-03-17T20:51:30.116Z,50.93
2023-03-17T20:56:30.064Z,50.73
2023-03-17T21:01:30.076Z,50.83
2023-03-17T21:06:30.076Z,50.53
2023-03-17T21:11:30.078Z,50.61
2023-03-17T21:16:30.079Z,50.43
2023-03-17T21:21:30.070Z,50.45
2023-03-17T21:26:30.082Z,50.75
2023-03-17T21:31:30.072Z,50.58
2023-03-17T21:36:30.083Z,50.31
2023-03-17T21:41:30.085Z,50.22
2023-03-17T21:46:30.076Z,50.29
2023-03-17T21:51:30.087Z,50.07
2023-03-17T21:56:30.078Z,49.9
2023-03-17T22:01:30.089Z,49.99
2023-03-17T22:06:30.090Z,49.71
2023-03-17T22:11:30.092Z,49.37
2023-03-17T22:16:30.092Z,49.24
2023-03-17T22:21:30.083Z,49.29
2023-03-17T22:26:30.160Z,49.61
2023-03-17T22:31:30.086Z,49.7
2023-03-17T22:36:30.106Z,49.85
2023-03-17T22:41:30.099Z,49.7
2023-03-17T22:46:30.089Z,49.6
2023-03-17T22:51:30.101Z,49.56
2023-03-17T22:56:30.091Z,49.5
2023-03-17T23:01:30.103Z,49.72
2023-03-17T23:06:30.093Z,50.23
2023-03-17T23:11:30.105Z,50.38
2023-03-17T23:16:30.106Z,49.81
2023-03-17T23:21:30.096Z,49.52
2023-03-17T23:26:30.108Z,49.3
2023-03-17T23:31:30.098Z,49.41
2023-03-17T23:36:30.111Z,49.74
2023-03-17T23:41:30.110Z,49.66
2023-03-17T23:46:30.112Z,49.88
2023-03-17T23:51:30.112Z,49.75
2023-03-17T23:56:30.104Z,49.64
